createdAt,value
2023-02-11T00:01:35.255Z,70.47
2023-02-11T00:03:39.729Z,70.89
2023-02-11T00:05:42.524Z,70.42
2023-02-11T00:07:45.329Z,71.15
2023-02-11T00:09:48.096Z,71.05
2023-02-11T00:11:50.858Z,71.18
2023-02-11T00:13:53.680Z,71.13
2023-02-11T00:15:58.063Z,71.09
2023-02-11T00:18:00.811Z,71.49
2023-02-11T00:20:07.924Z,71.03
2023-02-11T00:22:11.036Z,70.84
2023-02-11T00:24:13.831Z,70.96
2023-02-11T00:26:19.143Z,70.72
2023-02-11T00:28:22.593Z,71.05
2023-02-11T00:30:25.747Z,71.27
2023-02-11T00:32:29.858Z,70.79
2023-02-11T00:34:32.935Z,70.49
2023-02-11T00:36:41.012Z,70.89
2023-02-11T00:38:44.661Z,70.45
2023-02-11T00:40:47.439Z,70.81
2023-02-11T00:42:50.242Z,70.43
2023-02-11T00:44:53.073Z,70.92
2023-02-11T00:46:55.857Z,70.70
2023-02-11T00:48:58.663Z,70.57
2023-02-11T00:51:01.485Z,70.80
2023-02-11T00:53:05.720Z,70.68
2023-02-11T00:55:09.193Z,70.77
2023-02-11T00:57:12.016Z,71.01
2023-02-11T00:59:14.860Z,71.04
2023-02-11T01:01:20.188Z,70.24
2023-02-11T01:03:23.030Z,70.13
2023-02-11T01:05:26.216Z,70.38
2023-02-11T01:07:29.474Z,69.91
2023-02-11T01:09:33.624Z,70.15
2023-02-11T01:11:36.758Z,70.24
2023-02-11T01:13:40.614Z,70.20
2023-02-11T01:15:43.406Z,70.15
2023-02-11T01:17:46.567Z,70.05
2023-02-11T01:19:49.468Z,70.15
2023-02-11T01:21:52.232Z,69.69
2023-02-11T01:23:58.013Z,70.19
2023-02-11T01:26:02.296Z,69.61
2023-02-11T01:28:05.424Z,69.71
2023-02-11T01:30:10.467Z,69.87
2023-02-11T01:32:13.165Z,70.06
2023-02-11T01:34:16.004Z,69.96
2023-02-11T01:36:18.920Z,69.87
2023-02-11T01:38:24.328Z,70.49
2023-02-11T01:40:28.804Z,70.22
2023-02-11T01:42:33.804Z,70.35
2023-02-11T01:44:39.977Z,69.66
2023-02-11T01:46:43.012Z,69.82
2023-02-11T01:48:50.312Z,69.61
2023-02-11T01:50:58.074Z,69.89
2023-02-11T01:53:21.839Z,69.89
2023-02-11T01:55:47.535Z,69.93
2023-02-11T01:57:56.216Z,69.73
2023-02-11T02:00:05.477Z,70.18
2023-02-11T02:02:22.783Z,70.20
2023-02-11T02:04:31.467Z,70.12
2023-02-11T02:06:36.859Z,70.23
2023-02-11T02:08:44.812Z,70.12
2023-02-11T02:10:49.548Z,70.05
2023-02-11T02:12:54.085Z,69.80
2023-02-11T02:15:28.459Z,70.25
2023-02-11T02:17:41.796Z,70.22
2023-02-11T02:20:12.468Z,70.08
2023-02-11T02:22:47.781Z,69.69
2023-02-11T02:25:17.123Z,69.68
2023-02-11T02:27:30.868Z,70.07
2023-02-11T02:29:54.366Z,70.23
2023-02-11T02:32:27.903Z,70.13
2023-02-11T02:34:38.631Z,70.11
2023-02-11T02:36:48.838Z,70.25
2023-02-11T02:38:54.991Z,69.92
2023-02-11T02:41:02.468Z,69.97
2023-02-11T02:43:06.033Z,69.61
2023-02-11T02:45:12.081Z,69.60
2023-02-11T02:47:14.852Z,70.15
2023-02-11T02:49:19.173Z,69.89
2023-02-11T02:51:47.659Z,69.85
2023-02-11T02:54:00.157Z,69.91
2023-02-11T02:56:10.588Z,69.35
2023-02-11T02:58:47.213Z,69.64
2023-02-11T03:00:59.252Z,69.61
2023-02-11T03:03:17.606Z,70.03
2023-02-11T03:05:27.777Z,69.65
2023-02-11T03:07:41.077Z,70.32
2023-02-11T03:09:49.392Z,70.11
2023-02-11T03:11:52.310Z,70.25
2023-02-11T03:13:56.288Z,70.07
2023-02-11T03:16:03.356Z,70.48
2023-02-11T03:18:08.519Z,70.43
2023-02-11T03:20:15.949Z,69.86
2023-02-11T03:22:23.676Z,69.92
2023-02-11T03:24:31.603Z,69.92
2023-02-11T03:26:38.936Z,69.87
2023-02-11T03:28:48.855Z,70.17
2023-02-11T03:30:58.300Z,69.67
2023-02-11T03:33:08.039Z,69.87
2023-02-11T03:35:16.490Z,70.16
2023-02-11T03:37:24.592Z,69.76
2023-02-11T03:39:34.268Z,70.39
2023-02-11T03:41:38.130Z,70.57
2023-02-11T03:43:45.080Z,70.14
2023-02-11T03:45:51.062Z,70.54
2023-02-11T03:47:58.681Z,70.39
2023-02-11T03:50:05.552Z,70.11
2023-02-11T03:52:11.291Z,70.09
2023-02-11T03:54:21.446Z,70.40
2023-02-11T03:56:28.286Z,70.23
2023-02-11T03:58:31.582Z,70.06
2023-02-11T04:00:37.785Z,70.03
2023-02-11T04:02:41.689Z,69.69
2023-02-11T04:04:45.068Z,69.81
2023-02-11T04:06:47.855Z,70.12
2023-02-11T04:08:50.664Z,70.00
2023-02-11T04:10:54.757Z,70.01
2023-02-11T04:12:57.647Z,69.99
2023-02-11T04:15:00.403Z,70.02
2023-02-11T04:17:03.680Z,69.44
2023-02-11T04:19:06.384Z,69.34
2023-02-11T04:21:09.245Z,69.44
2023-02-11T04:23:12.057Z,69.59
2023-02-11T04:25:14.878Z,68.79
2023-02-11T04:27:18.944Z,69.75
2023-02-11T04:29:21.797Z,69.72
2023-02-11T04:31:24.759Z,69.67
2023-02-11T04:33:27.701Z,69.18
2023-02-11T04:35:30.409Z,69.89
2023-02-11T04:37:33.401Z,70.01
2023-02-11T04:39:36.411Z,70.22
2023-02-11T04:41:39.159Z,70.08
2023-02-11T04:43:43.253Z,69.94
2023-02-11T04:45:46.065Z,69.44
2023-02-11T04:47:48.854Z,69.74
2023-02-11T04:49:51.798Z,69.32
2023-02-11T04:51:54.620Z,70.05
2023-02-11T04:53:57.391Z,69.27
2023-02-11T04:56:00.284Z,69.89
2023-02-11T04:58:03.007Z,69.23
2023-02-11T05:00:08.256Z,69.00
2023-02-11T05:02:11.047Z,69.71
2023-02-11T05:04:13.881Z,69.25
2023-02-11T05:06:16.743Z,69.13
2023-02-11T05:08:19.517Z,69.78
2023-02-11T05:10:22.321Z,69.26
2023-02-11T05:12:25.123Z,69.58
2023-02-11T05:14:27.989Z,69.55
2023-02-11T05:16:32.356Z,69.64
2023-02-11T05:18:35.096Z,69.61
2023-02-11T05:20:39.154Z,70.09
2023-02-11T05:22:41.994Z,70.42
2023-02-11T05:24:44.742Z,69.82
2023-02-11T05:26:47.591Z,69.98
2023-02-11T05:28:50.371Z,70.42
2023-02-11T05:30:53.198Z,70.56
2023-02-11T05:32:57.606Z,70.32
2023-02-11T05:35:00.427Z,70.49
2023-02-11T05:37:03.247Z,70.09
2023-02-11T05:39:06.055Z,70.44
2023-02-11T05:41:08.912Z,70.78
2023-02-11T05:43:11.658Z,70.69
2023-02-11T05:45:14.527Z,70.90
2023-02-11T05:47:17.278Z,70.40
2023-02-11T05:49:21.473Z,70.45
2023-02-11T05:51:25.214Z,70.25
2023-02-11T05:53:27.985Z,70.13
2023-02-11T05:55:30.871Z,70.05
2023-02-11T05:57:33.615Z,69.85
2023-02-11T05:59:36.352Z,70.51
2023-02-11T06:01:39.157Z,70.04
2023-02-11T06:03:42.047Z,70.34
2023-02-11T06:05:46.762Z,70.16
2023-02-11T06:07:49.596Z,70.52
2023-02-11T06:09:52.438Z,70.34
2023-02-11T06:11:55.243Z,70.14
2023-02-11T06:13:58.016Z,70.31
2023-02-11T06:16:02.660Z,70.31
2023-02-11T06:18:06.230Z,70.39
2023-02-11T06:20:10.697Z,69.94
2023-02-11T06:22:14.857Z,70.29
2023-02-11T06:24:33.095Z,70.34
2023-02-11T06:26:40.450Z,70.02
2023-02-11T06:28:43.257Z,70.28
2023-02-11T06:30:46.381Z,70.23
2023-02-11T06:32:49.344Z,69.99
2023-02-11T06:34:52.201Z,70.32
2023-02-11T06:36:54.991Z,69.67
2023-02-11T06:38:59.181Z,70.00
2023-02-11T06:41:01.923Z,70.06
2023-02-11T06:43:04.656Z,69.72
2023-02-11T06:45:09.320Z,70.06
2023-02-11T06:47:12.195Z,69.52
2023-02-11T06:49:15.384Z,69.39
2023-02-11T06:51:18.437Z,69.33
2023-02-11T06:53:21.373Z,69.64
2023-02-11T06:55:25.489Z,69.57
2023-02-11T06:57:28.208Z,69.36
2023-02-11T06:59:30.969Z,69.69
2023-02-11T07:01:33.929Z,69.62
2023-02-11T07:03:38.507Z,69.92
2023-02-11T07:05:43.450Z,69.55
2023-02-11T07:07:46.073Z,69.86
2023-02-11T07:09:48.905Z,70.13
2023-02-11T07:11:53.138Z,69.47
2023-02-11T07:13:57.915Z,69.30
2023-02-11T07:16:00.732Z,69.38
2023-02-11T07:18:04.095Z,69.64
2023-02-11T07:20:07.659Z,69.72
2023-02-11T07:22:10.450Z,69.78
2023-02-11T07:24:14.275Z,69.34
2023-02-11T07:26:18.492Z,69.75
2023-02-11T07:28:22.654Z,69.75
2023-02-11T07:30:25.488Z,69.88
2023-02-11T07:32:28.311Z,69.48
2023-02-11T07:34:31.120Z,69.46
2023-02-11T07:36:34.140Z,69.32
2023-02-11T07:38:37.837Z,69.38
2023-02-11T07:40:40.746Z,69.28
2023-02-11T07:42:43.557Z,69.72
2023-02-11T07:44:50.343Z,69.40
2023-02-11T07:46:53.377Z,69.86
2023-02-11T07:48:56.568Z,69.37
2023-02-11T07:51:06.794Z,69.28
2023-02-11T07:53:09.512Z,69.50
2023-02-11T07:55:12.463Z,69.51
2023-02-11T07:57:15.319Z,69.16
2023-02-11T07:59:18.055Z,68.95
2023-02-11T08:01:25.426Z,69.01
2023-02-11T08:03:28.468Z,68.58
2023-02-11T08:05:31.416Z,69.36
2023-02-11T08:07:34.273Z,68.86
2023-02-11T08:09:36.982Z,68.60
2023-02-11T08:11:39.875Z,68.33
2023-02-11T08:13:43.465Z,68.49
2023-02-11T08:15:46.264Z,68.45
2023-02-11T08:17:50.471Z,68.36
2023-02-11T08:19:53.274Z,68.59
2023-02-11T08:21:56.912Z,68.83
2023-02-11T08:23:59.756Z,69.16
2023-02-11T08:26:03.397Z,68.41
2023-02-11T08:28:06.248Z,67.91
2023-02-11T08:30:10.180Z,68.26
2023-02-11T08:32:12.996Z,68.39
2023-02-11T08:34:19.237Z,68.14
2023-02-11T08:36:24.275Z,68.23
2023-02-11T08:38:27.127Z,67.64
2023-02-11T08:40:29.954Z,67.40
2023-02-11T08:42:32.707Z,67.34
2023-02-11T08:44:35.491Z,67.30
2023-02-11T08:46:38.229Z,67.25
2023-02-11T08:48:41.059Z,67.92
2023-02-11T08:50:45.181Z,67.36
2023-02-11T08:52:47.962Z,67.42
2023-02-11T08:54:50.816Z,67.16
2023-02-11T08:56:53.706Z,67.02
2023-02-11T08:58:56.538Z,66.85
2023-02-11T09:00:59.820Z,66.80
2023-02-11T09:03:02.816Z,66.82
2023-02-11T09:05:05.967Z,66.56
2023-02-11T09:07:10.172Z,66.59
2023-02-11T09:09:14.861Z,66.82
2023-02-11T09:11:18.955Z,66.76
2023-02-11T09:13:21.694Z,66.30
2023-02-11T09:15:24.594Z,66.68
2023-02-11T09:17:33.932Z,66.70
2023-02-11T09:19:36.866Z,66.76
2023-02-11T09:21:39.851Z,67.03
2023-02-11T09:23:44.814Z,66.62
2023-02-11T09:25:47.425Z,66.79
2023-02-11T09:27:51.346Z,66.43
2023-02-11T09:29:54.106Z,66.45
2023-02-11T09:31:57.014Z,66.47
2023-02-11T09:34:01.956Z,66.25
2023-02-11T09:36:06.144Z,65.79
2023-02-11T09:38:08.887Z,65.71
2023-02-11T09:40:13.944Z,64.86
2023-02-11T09:42:38.534Z,64.68
2023-02-11T09:44:41.645Z,64.69
2023-02-11T09:46:47.880Z,64.72
2023-02-11T09:48:53.444Z,64.58
2023-02-11T09:50:59.724Z,64.00
2023-02-11T09:53:05.663Z,64.04
2023-02-11T09:55:19.764Z,64.09
2023-02-11T09:57:28.805Z,63.85
2023-02-11T09:59:32.066Z,63.89
2023-02-11T10:01:42.839Z,63.84
2023-02-11T10:04:06.470Z,63.62
2023-02-11T10:06:30.659Z,63.60
2023-02-11T10:08:42.543Z,63.00
2023-02-11T10:10:53.159Z,62.88
2023-02-11T10:13:16.078Z,62.99
2023-02-11T10:15:37.551Z,62.54
2023-02-11T10:17:51.272Z,62.82
2023-02-11T10:20:06.818Z,62.52
2023-02-11T10:22:19.241Z,62.57
2023-02-11T10:24:23.170Z,61.78
2023-02-11T10:26:32.335Z,61.16
2023-02-11T10:28:35.799Z,60.87
2023-02-11T10:30:42.550Z,61.36
2023-02-11T10:32:49.576Z,61.63
2023-02-11T10:34:56.984Z,62.19
2023-02-11T10:37:00.325Z,61.79
2023-02-11T10:39:03.559Z,61.42
2023-02-11T10:41:06.505Z,60.77
2023-02-11T10:43:14.664Z,61.60
2023-02-11T10:45:23.582Z,61.60
2023-02-11T10:47:29.589Z,63.12
2023-02-11T10:49:38.392Z,61.95
2023-02-11T10:51:41.219Z,61.45
2023-02-11T10:53:44.871Z,61.44
2023-02-11T10:55:53.458Z,61.74
2023-02-11T10:57:59.613Z,62.05
2023-02-11T11:00:09.457Z,61.78
2023-02-11T11:02:24.523Z,61.74
2023-02-11T11:04:41.696Z,60.95
2023-02-11T11:06:44.593Z,61.10
2023-02-11T11:08:49.084Z,60.47
2023-02-11T11:11:04.883Z,60.69
2023-02-11T11:13:25.490Z,59.71
2023-02-11T11:15:31.567Z,59.48
2023-02-11T11:17:34.515Z,59.45
2023-02-11T11:19:39.159Z,59.64
2023-02-11T11:21:44.357Z,60.31
2023-02-11T11:23:53.793Z,59.44
2023-02-11T11:26:05.095Z,60.17
2023-02-11T11:28:19.885Z,59.03
2023-02-11T11:30:26.714Z,58.76
2023-02-11T11:32:33.289Z,58.38
2023-02-11T11:34:39.759Z,58.74
2023-02-11T11:36:42.636Z,58.29
2023-02-11T11:38:50.134Z,58.37
2023-02-11T11:41:14.557Z,58.54
2023-02-11T11:43:23.035Z,58.46
2023-02-11T11:45:27.590Z,58.41
2023-02-11T11:47:37.000Z,58.16
2023-02-11T11:49:44.951Z,57.89
2023-02-11T11:51:56.020Z,58.08
2023-02-11T11:54:02.334Z,58.77
2023-02-11T11:56:07.882Z,58.80
2023-02-11T11:58:16.380Z,58.01
2023-02-11T12:00:22.676Z,57.60
2023-02-11T12:02:51.946Z,57.87
2023-02-11T12:05:02.600Z,57.61
2023-02-11T12:07:18.801Z,57.86
2023-02-11T12:09:29.828Z,58.36
2023-02-11T12:11:42.730Z,59.28
2023-02-11T12:13:57.905Z,59.39
2023-02-11T12:16:11.310Z,59.33
2023-02-11T12:18:32.806Z,59.26
2023-02-11T12:20:44.530Z,59.36
2023-02-11T12:23:02.080Z,58.91
2023-02-11T12:25:27.236Z,58.00
2023-02-11T12:27:48.904Z,57.75
2023-02-11T12:30:04.308Z,59.00
2023-02-11T12:32:15.880Z,59.72
2023-02-11T12:34:42.899Z,60.00
2023-02-11T12:37:02.817Z,60.23
2023-02-11T12:39:18.806Z,60.18
2023-02-11T12:41:53.324Z,59.68
2023-02-11T12:43:56.193Z,60.09
2023-02-11T12:46:23.947Z,59.88
2023-02-11T12:48:46.413Z,59.44
2023-02-11T12:50:59.219Z,59.83
2023-02-11T12:53:21.346Z,59.40
2023-02-11T12:55:26.807Z,59.15
2023-02-11T12:57:33.292Z,59.35
2023-02-11T12:59:48.736Z,58.85
2023-02-11T13:01:52.910Z,59.16
2023-02-11T13:04:02.000Z,60.27
2023-02-11T13:06:09.343Z,60.01
2023-02-11T13:08:16.948Z,60.02
2023-02-11T13:10:30.935Z,59.46
2023-02-11T13:12:56.134Z,58.86
2023-02-11T13:15:04.070Z,58.92
2023-02-11T13:17:18.764Z,59.67
2023-02-11T13:19:27.785Z,59.92
2023-02-11T13:21:42.000Z,59.61
2023-02-11T13:23:51.089Z,59.06
2023-02-11T13:26:00.431Z,59.48
2023-02-11T13:28:23.698Z,59.43
2023-02-11T13:30:32.412Z,59.44
2023-02-11T13:33:06.517Z,59.87
2023-02-11T13:35:29.268Z,59.81
2023-02-11T13:37:38.100Z,60.06
2023-02-11T13:39:40.927Z,59.76
2023-02-11T13:41:45.099Z,60.11
2023-02-11T13:43:59.832Z,59.91
2023-02-11T13:46:04.510Z,60.62
2023-02-11T13:48:09.948Z,60.71
2023-02-11T13:50:24.801Z,60.40
2023-02-11T13:52:30.607Z,61.24
2023-02-11T13:54:39.018Z,61.52
2023-02-11T13:56:44.037Z,61.78
2023-02-11T13:58:48.910Z,62.33
2023-02-11T14:00:52.660Z,63.22
2023-02-11T14:03:41.687Z,62.93
2023-02-11T14:06:30.327Z,63.13
2023-02-11T14:08:50.503Z,63.18
2023-02-11T14:10:56.762Z,63.50
2023-02-11T14:13:22.939Z,63.52
2023-02-11T14:15:28.726Z,63.01
2023-02-11T14:17:33.861Z,62.38
2023-02-11T14:19:38.460Z,62.80
2023-02-11T14:21:44.061Z,62.98
2023-02-11T14:23:48.341Z,63.02
2023-02-11T14:26:26.797Z,62.96
2023-02-11T14:28:34.170Z,62.78
2023-02-11T14:30:47.411Z,63.29
2023-02-11T14:33:07.174Z,62.86
2023-02-11T14:35:18.241Z,63.44
2023-02-11T14:37:33.926Z,63.68
2023-02-11T14:39:56.941Z,64.34
2023-02-11T14:42:03.515Z,63.75
2023-02-11T14:44:14.065Z,64.31
2023-02-11T14:46:18.703Z,64.87
2023-02-11T14:48:28.335Z,64.35
2023-02-11T14:50:38.739Z,64.86
2023-02-11T14:52:44.164Z,65.05
2023-02-11T14:54:49.584Z,65.97
2023-02-11T14:57:11.109Z,65.84
2023-02-11T14:59:18.830Z,65.59
2023-02-11T15:01:29.040Z,66.28
2023-02-11T15:03:34.879Z,65.95
2023-02-11T15:05:37.867Z,65.89
2023-02-11T15:07:45.393Z,65.62
2023-02-11T15:09:51.163Z,65.51
2023-02-11T15:11:55.116Z,64.80
2023-02-11T15:14:02.744Z,64.97
2023-02-11T15:16:09.161Z,65.13
2023-02-11T15:18:22.630Z,64.99
2023-02-11T15:20:28.266Z,65.13
2023-02-11T15:22:36.775Z,65.50
2023-02-11T15:24:40.439Z,65.11
2023-02-11T15:26:43.264Z,65.08
2023-02-11T15:28:52.034Z,64.78
2023-02-11T15:31:01.684Z,65.26
2023-02-11T15:33:06.812Z,64.93
2023-02-11T15:35:13.594Z,64.68
2023-02-11T15:37:21.831Z,64.64
2023-02-11T15:39:32.452Z,64.53
2023-02-11T15:41:37.664Z,64.67
2023-02-11T15:43:45.530Z,64.19
2023-02-11T15:45:57.931Z,64.06
2023-02-11T15:48:09.109Z,64.37
2023-02-11T15:50:21.877Z,64.44
2023-02-11T15:52:27.406Z,64.24
2023-02-11T15:54:32.069Z,64.08
2023-02-11T15:56:43.254Z,64.31
2023-02-11T15:58:48.790Z,64.30
2023-02-11T16:00:59.544Z,64.13
2023-02-11T16:03:04.208Z,64.35
2023-02-11T16:05:10.345Z,64.53
2023-02-11T16:07:39.630Z,64.49
2023-02-11T16:09:43.815Z,64.91
2023-02-11T16:11:57.982Z,64.57
2023-02-11T16:14:04.570Z,64.97
2023-02-11T16:16:20.682Z,64.63
2023-02-11T16:18:39.377Z,64.77
2023-02-11T16:20:48.262Z,64.72
2023-02-11T16:22:51.271Z,64.94
2023-02-11T16:24:58.010Z,64.64
2023-02-11T16:27:02.658Z,64.90
2023-02-11T16:29:13.176Z,64.63
2023-02-11T16:31:16.287Z,65.31
2023-02-11T16:33:19.113Z,65.34
2023-02-11T16:35:23.343Z,65.13
2023-02-11T16:37:26.619Z,65.23
2023-02-11T16:39:29.434Z,64.80
2023-02-11T16:41:32.259Z,65.25
2023-02-11T16:43:35.076Z,65.40
2023-02-11T16:45:38.634Z,65.22
2023-02-11T16:47:42.421Z,65.01
2023-02-11T16:49:45.365Z,65.41
2023-02-11T16:51:52.728Z,65.72
2023-02-11T16:53:55.598Z,65.57
2023-02-11T16:55:58.329Z,65.36
2023-02-11T16:58:01.067Z,65.21
2023-02-11T17:00:06.302Z,65.47
2023-02-11T17:02:13.874Z,65.15
2023-02-11T17:04:20.187Z,65.06
2023-02-11T17:06:22.981Z,65.52
2023-02-11T17:08:27.269Z,65.37
2023-02-11T17:10:30.774Z,65.53
2023-02-11T17:12:33.580Z,65.39
2023-02-11T17:14:36.373Z,65.15
2023-02-11T17:16:39.292Z,65.39
2023-02-11T17:18:42.120Z,65.36
2023-02-11T17:20:44.949Z,65.39
2023-02-11T17:22:47.772Z,65.86
2023-02-11T17:24:51.930Z,65.87
2023-02-11T17:26:54.863Z,65.37
2023-02-11T17:28:57.652Z,65.40
2023-02-11T17:31:00.917Z,65.41
2023-02-11T17:33:03.924Z,65.36
2023-02-11T17:35:07.527Z,65.41
2023-02-11T17:37:10.304Z,65.83
2023-02-11T17:39:13.659Z,66.12
2023-02-11T17:41:17.844Z,65.87
2023-02-11T17:43:20.662Z,66.36
2023-02-11T17:45:23.602Z,66.14
2023-02-11T17:47:26.506Z,66.57
2023-02-11T17:49:29.279Z,66.40
2023-02-11T17:51:34.000Z,66.75
2023-02-11T17:53:36.799Z,66.79
2023-02-11T17:55:39.525Z,66.74
2023-02-11T17:57:44.209Z,66.46
2023-02-11T17:59:47.177Z,67.07
2023-02-11T18:01:50.072Z,67.01
2023-02-11T18:03:52.928Z,67.16
2023-02-11T18:06:00.738Z,66.79
2023-02-11T18:08:04.106Z,66.71
2023-02-11T18:10:08.071Z,66.64
2023-02-11T18:12:11.930Z,66.54
2023-02-11T18:14:16.118Z,66.96
2023-02-11T18:16:19.055Z,66.76
2023-02-11T18:18:21.996Z,67.17
2023-02-11T18:20:24.805Z,66.74
2023-02-11T18:22:27.936Z,66.73
2023-02-11T18:24:31.055Z,67.22
2023-02-11T18:26:33.900Z,67.68
2023-02-11T18:28:36.831Z,67.47
2023-02-11T18:30:41.179Z,67.94
2023-02-11T18:32:44.538Z,67.47
2023-02-11T18:34:47.354Z,68.38
2023-02-11T18:36:50.344Z,67.73
2023-02-11T18:38:54.189Z,68.13
2023-02-11T18:40:58.562Z,68.63
2023-02-11T18:43:01.313Z,68.15
2023-02-11T18:45:05.164Z,68.14
2023-02-11T18:47:09.314Z,68.56
2023-02-11T18:49:13.143Z,68.17
2023-02-11T18:51:18.634Z,68.38
2023-02-11T18:53:21.842Z,68.29
2023-02-11T18:55:25.882Z,68.21
2023-02-11T18:57:28.705Z,68.03
2023-02-11T18:59:31.655Z,67.96
2023-02-11T19:01:34.666Z,68.46
2023-02-11T19:03:38.880Z,68.60
2023-02-11T19:05:42.658Z,68.31
2023-02-11T19:07:45.481Z,68.76
2023-02-11T19:09:48.233Z,68.95
2023-02-11T19:11:51.173Z,68.83
2023-02-11T19:13:53.944Z,69.17
2023-02-11T19:15:56.685Z,68.71
2023-02-11T19:17:59.513Z,69.07
2023-02-11T19:20:05.961Z,68.95
2023-02-11T19:22:10.785Z,68.99
2023-02-11T19:24:15.450Z,68.85
2023-02-11T19:26:18.220Z,69.03
2023-02-11T19:28:22.068Z,68.89
2023-02-11T19:30:24.901Z,68.72
2023-02-11T19:32:28.052Z,68.30
2023-02-11T19:34:30.962Z,68.58
2023-02-11T19:36:35.447Z,68.51
2023-02-11T19:38:39.128Z,68.40
2023-02-11T19:40:41.936Z,68.27
2023-02-11T19:42:44.844Z,68.95
2023-02-11T19:44:47.659Z,68.78
2023-02-11T19:46:52.779Z,68.89
2023-02-11T19:48:55.844Z,68.75
2023-02-11T19:50:58.700Z,68.91
2023-02-11T19:53:03.046Z,69.06
2023-02-11T19:55:06.474Z,69.51
2023-02-11T19:57:09.247Z,69.75
2023-02-11T19:59:12.453Z,69.50
2023-02-11T20:01:17.656Z,69.33
2023-02-11T20:03:20.589Z,69.60
2023-02-11T20:05:23.556Z,69.55
2023-02-11T20:07:26.351Z,69.56
2023-02-11T20:09:31.157Z,69.49
2023-02-11T20:11:34.548Z,69.23
2023-02-11T20:13:38.472Z,69.33
2023-02-11T20:15:41.285Z,69.47
2023-02-11T20:17:45.355Z,68.98
2023-02-11T20:19:48.156Z,69.14
2023-02-11T20:21:53.565Z,69.05
2023-02-11T20:23:56.405Z,69.46
2023-02-11T20:26:05.279Z,69.38
2023-02-11T20:28:08.021Z,69.33
2023-02-11T20:30:11.621Z,69.35
2023-02-11T20:32:15.638Z,69.24
2023-02-11T20:34:18.870Z,68.92
2023-02-11T20:36:23.900Z,69.40
2023-02-11T20:38:27.587Z,69.35
2023-02-11T20:40:30.374Z,69.08
2023-02-11T20:42:34.499Z,69.26
2023-02-11T20:44:37.628Z,68.96
2023-02-11T20:46:42.426Z,69.19
2023-02-11T20:48:45.204Z,68.98
2023-02-11T20:50:48.417Z,69.26
2023-02-11T20:52:51.275Z,69.36
2023-02-11T20:54:54.071Z,69.34
2023-02-11T20:56:58.128Z,69.24
2023-02-11T20:59:03.806Z,68.96
2023-02-11T21:01:10.384Z,69.21
2023-02-11T21:03:13.279Z,69.46
2023-02-11T21:05:16.049Z,68.95
2023-02-11T21:07:19.364Z,69.53
2023-02-11T21:09:23.909Z,68.94
2023-02-11T21:11:26.807Z,69.13
2023-02-11T21:13:29.650Z,69.46
2023-02-11T21:15:33.763Z,69.50
2023-02-11T21:17:36.601Z,69.50
2023-02-11T21:19:39.481Z,69.20
2023-02-11T21:21:42.510Z,69.76
2023-02-11T21:23:45.338Z,69.59
2023-02-11T21:25:48.471Z,69.50
2023-02-11T21:27:51.277Z,69.35
2023-02-11T21:29:54.919Z,69.24
2023-02-11T21:31:59.102Z,69.26
2023-02-11T21:34:01.913Z,69.94
2023-02-11T21:36:07.689Z,69.83
2023-02-11T21:38:10.493Z,69.21
2023-02-11T21:40:14.847Z,69.31
2023-02-11T21:42:17.665Z,69.58
2023-02-11T21:44:20.476Z,69.18
2023-02-11T21:46:23.633Z,69.16
2023-02-11T21:48:28.307Z,69.38
2023-02-11T21:50:31.093Z,69.57
2023-02-11T21:52:33.895Z,69.70
2023-02-11T21:54:36.726Z,69.39
2023-02-11T21:56:40.541Z,69.23
2023-02-11T21:58:43.969Z,69.71
2023-02-11T22:00:46.783Z,69.55
2023-02-11T22:02:49.929Z,69.72
2023-02-11T22:04:54.145Z,69.40
2023-02-11T22:06:56.963Z,69.33
2023-02-11T22:09:03.026Z,69.36
2023-02-11T22:11:07.064Z,69.46
2023-02-11T22:13:09.868Z,69.82
2023-02-11T22:15:12.965Z,69.45
2023-02-11T22:17:15.782Z,69.67
2023-02-11T22:19:18.907Z,69.36
2023-02-11T22:21:23.926Z,69.64
2023-02-11T22:23:26.831Z,69.84
2023-02-11T22:25:29.620Z,69.87
2023-02-11T22:27:32.465Z,69.81
2023-02-11T22:29:35.311Z,70.44
2023-02-11T22:31:38.271Z,70.04
2023-02-11T22:33:41.729Z,70.60
2023-02-11T22:35:44.517Z,70.37
2023-02-11T22:37:48.673Z,70.70
2023-02-11T22:39:51.441Z,70.57
2023-02-11T22:41:56.428Z,70.47
2023-02-11T22:43:59.487Z,70.13
2023-02-11T22:46:03.308Z,70.24
2023-02-11T22:48:06.636Z,70.50
2023-02-11T22:50:09.995Z,70.83
2023-02-11T22:52:12.943Z,70.35
2023-02-11T22:54:18.421Z,70.67
2023-02-11T22:56:22.053Z,70.78
2023-02-11T22:58:25.681Z,70.90
2023-02-11T23:00:32.455Z,70.96
2023-02-11T23:02:35.294Z,70.68
2023-02-11T23:04:38.127Z,70.56
2023-02-11T23:06:41.086Z,70.69
2023-02-11T23:08:44.453Z,71.25
2023-02-11T23:10:49.220Z,71.34
2023-02-11T23:12:51.939Z,71.14
2023-02-11T23:14:54.724Z,71.64
2023-02-11T23:16:57.530Z,71.45
2023-02-11T23:19:01.507Z,71.53
2023-02-11T23:21:06.626Z,71.48
2023-02-11T23:23:09.619Z,71.04
2023-02-11T23:25:12.417Z,71.45
2023-02-11T23:27:16.572Z,70.83
2023-02-11T23:29:19.380Z,70.95
2023-02-11T23:31:24.379Z,71.48
2023-02-11T23:33:27.311Z,71.46
2023-02-11T23:35:30.155Z,70.84
2023-02-11T23:37:32.908Z,71.25
2023-02-11T23:39:35.953Z,71.40
2023-02-11T23:41:38.707Z,71.12
2023-02-11T23:43:42.848Z,71.02
2023-02-11T23:45:45.588Z,70.90
2023-02-11T23:47:48.510Z,71.06
2023-02-11T23:49:51.324Z,71.11
2023-02-11T23:51:54.126Z,70.98
2023-02-11T23:53:57.051Z,71.33
2023-02-11T23:55:59.846Z,71.00
2023-02-11T23:58:02.751Z,70.65
